KLM83A EHAM-EDDH
Flight info
| Callsign | KLM83A |
|---|---|
| Flight time | 0h 46m |
| Altitude | 31000 |
| Route | ANDIK M105 RIBSO |
| Aircraft | A21N/M-SDE2E3FGHIJ1RWXY/LB1 |
Departure
| Time | 2026-05-07 14:42 |
|---|---|
| Airport | Amsterdam Airport Schiphol (EHAM) |
Arrival
| Time | 2026-05-07 15:29 |
|---|---|
| Airport | Hamburg Helmut Schmidt Airport (EDDH) |
| Time | Latitude | Longitude | Altitude | Speed | Heading |
|---|---|---|---|---|---|
| 2026-05-07 14:05 | 52.31003 | 4.77118 | 4 ft | 0 kts | 183° |
| 2026-05-07 14:23 | 52.31008 | 4.77119 | 4 ft | 4 kts | 181° |
| 2026-05-07 14:23 | 52.31034 | 4.77115 | 4 ft | 4 kts | 166° |
| 2026-05-07 14:24 | 52.31060 | 4.77106 | 4 ft | 4 kts | 184° |
| 2026-05-07 14:24 | 52.31074 | 4.77119 | 4 ft | 4 kts | 241° |
| 2026-05-07 14:24 | 52.31079 | 4.77147 | 4 ft | 0 kts | 257° |
| 2026-05-07 14:27 | 52.31077 | 4.77122 | 4 ft | 4 kts | 269° |
| 2026-05-07 14:27 | 52.31080 | 4.77054 | 4 ft | 7 kts | 274° |
| 2026-05-07 14:27 | 52.31096 | 4.76962 | 4 ft | 10 kts | 309° |
| 2026-05-07 14:27 | 52.31166 | 4.76956 | 4 ft | 12 kts | 30° |
| 2026-05-07 14:28 | 52.31243 | 4.77041 | 4 ft | 14 kts | 33° |
| 2026-05-07 14:28 | 52.31333 | 4.77137 | 4 ft | 16 kts | 33° |
| 2026-05-07 14:28 | 52.31415 | 4.77193 | 4 ft | 13 kts | 360° |
| 2026-05-07 14:28 | 52.31479 | 4.77196 | 4 ft | 3 kts | 3° |
| 2026-05-07 14:29 | 52.31481 | 4.77197 | 4 ft | 0 kts | 3° |
| 2026-05-07 14:29 | 52.31496 | 4.77198 | 4 ft | 4 kts | 3° |
| 2026-05-07 14:30 | 52.31547 | 4.77191 | 4 ft | 7 kts | 331° |
| 2026-05-07 14:30 | 52.31569 | 4.77108 | 4 ft | 10 kts | 267° |
| 2026-05-07 14:30 | 52.31564 | 4.76985 | 4 ft | 12 kts | 266° |
| 2026-05-07 14:30 | 52.31560 | 4.76875 | 4 ft | 7 kts | 266° |
| 2026-05-07 14:31 | 52.31557 | 4.76786 | 4 ft | 9 kts | 267° |
| 2026-05-07 14:31 | 52.31556 | 4.76726 | 4 ft | 8 kts | 267° |
| 2026-05-07 14:31 | 52.31552 | 4.76619 | 4 ft | 11 kts | 266° |
| 2026-05-07 14:31 | 52.31547 | 4.76484 | 5 ft | 13 kts | 266° |
| 2026-05-07 14:32 | 52.31542 | 4.76324 | 5 ft | 15 kts | 266° |
| 2026-05-07 14:32 | 52.31535 | 4.76141 | 5 ft | 17 kts | 266° |
| 2026-05-07 14:32 | 52.31528 | 4.75935 | 5 ft | 19 kts | 267° |
| 2026-05-07 14:32 | 52.31521 | 4.75719 | 4 ft | 16 kts | 266° |
| 2026-05-07 14:33 | 52.31516 | 4.75590 | 4 ft | 5 kts | 266° |
| 2026-05-07 14:33 | 52.31516 | 4.75576 | 4 ft | 0 kts | 266° |
| 2026-05-07 14:33 | 52.31515 | 4.75558 | 4 ft | 4 kts | 266° |
| 2026-05-07 14:34 | 52.31513 | 4.75495 | 4 ft | 7 kts | 266° |
| 2026-05-07 14:34 | 52.31510 | 4.75403 | 4 ft | 9 kts | 267° |
| 2026-05-07 14:34 | 52.31506 | 4.75282 | 4 ft | 12 kts | 267° |
| 2026-05-07 14:34 | 52.31502 | 4.75138 | 4 ft | 14 kts | 267° |
| 2026-05-07 14:35 | 52.31496 | 4.74967 | 4 ft | 16 kts | 266° |
| 2026-05-07 14:35 | 52.31491 | 4.74826 | 4 ft | 9 kts | 266° |
| 2026-05-07 14:35 | 52.31489 | 4.74786 | 4 ft | 0 kts | 266° |
| 2026-05-07 14:38 | 52.31489 | 4.74769 | 4 ft | 4 kts | 266° |
| 2026-05-07 14:38 | 52.31499 | 4.74692 | 4 ft | 9 kts | 305° |
| 2026-05-07 14:38 | 52.31559 | 4.74662 | 4 ft | 7 kts | 359° |
| 2026-05-07 14:39 | 52.31564 | 4.74662 | 5 ft | 0 kts | 359° |
| 2026-05-07 14:40 | 52.31581 | 4.74662 | 5 ft | 4 kts | 359° |
| 2026-05-07 14:40 | 52.31620 | 4.74668 | 5 ft | 7 kts | 14° |
| 2026-05-07 14:40 | 52.31664 | 4.74718 | 5 ft | 7 kts | 72° |
| 2026-05-07 14:41 | 52.31665 | 4.74748 | 5 ft | 0 kts | 86° |
| 2026-05-07 14:41 | 52.31668 | 4.74829 | 4 ft | 31 kts | 86° |
| 2026-05-07 14:42 | 52.31696 | 4.75587 | 3 ft | 100 kts | 87° |
| 2026-05-07 14:42 | 52.31746 | 4.77046 | 3 ft | 155 kts | 86° |
| 2026-05-07 14:42 | 52.31811 | 4.78918 | 413 ft | 161 kts | 84° |
| 2026-05-07 14:42 | 52.31884 | 4.80753 | 1050 ft | 165 kts | 83° |
| 2026-05-07 14:43 | 52.31987 | 4.82693 | 1537 ft | 179 kts | 82° |
| 2026-05-07 14:43 | 52.32105 | 4.84826 | 1987 ft | 203 kts | 83° |
| 2026-05-07 14:43 | 52.32234 | 4.87275 | 2380 ft | 234 kts | 83° |
| 2026-05-07 14:43 | 52.32528 | 4.90009 | 2988 ft | 254 kts | 69° |
| 2026-05-07 14:44 | 52.33423 | 4.92533 | 3909 ft | 260 kts | 54° |
| 2026-05-07 14:44 | 52.34498 | 4.94924 | 4912 ft | 262 kts | 54° |
| 2026-05-07 14:44 | 52.35586 | 4.97324 | 5841 ft | 265 kts | 54° |
| 2026-05-07 14:44 | 52.36688 | 4.99789 | 6749 ft | 270 kts | 54° |
| 2026-05-07 14:45 | 52.37799 | 5.02310 | 7599 ft | 276 kts | 54° |
| 2026-05-07 14:45 | 52.38930 | 5.04887 | 8454 ft | 282 kts | 54° |
| 2026-05-07 14:45 | 52.40079 | 5.07525 | 9344 ft | 287 kts | 54° |
| 2026-05-07 14:45 | 52.41254 | 5.10203 | 10229 ft | 292 kts | 52° |
| 2026-05-07 14:46 | 52.42708 | 5.12659 | 10705 ft | 311 kts | 36° |
| 2026-05-07 14:46 | 52.44673 | 5.14279 | 11049 ft | 332 kts | 17° |
| 2026-05-07 14:46 | 52.46973 | 5.15294 | 11388 ft | 352 kts | 13° |
| 2026-05-07 14:46 | 52.49401 | 5.16276 | 11909 ft | 365 kts | 13° |
| 2026-05-07 14:47 | 52.51873 | 5.17307 | 12684 ft | 368 kts | 14° |
| 2026-05-07 14:47 | 52.54357 | 5.18371 | 13589 ft | 369 kts | 14° |
| 2026-05-07 14:47 | 52.56848 | 5.19455 | 14354 ft | 372 kts | 14° |
| 2026-05-07 14:47 | 52.59360 | 5.20568 | 15044 ft | 376 kts | 14° |
| 2026-05-07 14:48 | 52.61845 | 5.21663 | 15733 ft | 379 kts | 14° |
| 2026-05-07 14:48 | 52.64437 | 5.22811 | 16398 ft | 383 kts | 14° |
| 2026-05-07 14:48 | 52.66986 | 5.23943 | 17040 ft | 386 kts | 14° |
| 2026-05-07 14:48 | 52.69577 | 5.25169 | 17674 ft | 390 kts | 19° |
| 2026-05-07 14:49 | 52.71976 | 5.27126 | 18034 ft | 373 kts | 33° |
| 2026-05-07 14:49 | 52.73903 | 5.29811 | 18129 ft | 357 kts | 48° |
| 2026-05-07 14:49 | 52.75288 | 5.33169 | 18127 ft | 355 kts | 63° |
| 2026-05-07 14:49 | 52.76204 | 5.36948 | 18111 ft | 355 kts | 71° |
| 2026-05-07 14:50 | 52.76995 | 5.40818 | 18099 ft | 355 kts | 71° |
| 2026-05-07 14:50 | 52.77784 | 5.44686 | 18375 ft | 360 kts | 71° |
| 2026-05-07 14:50 | 52.78612 | 5.48631 | 18982 ft | 364 kts | 70° |
| 2026-05-07 14:50 | 52.79445 | 5.52539 | 19655 ft | 366 kts | 70° |
| 2026-05-07 14:51 | 52.80291 | 5.56519 | 20370 ft | 367 kts | 71° |
| 2026-05-07 14:51 | 52.81142 | 5.60496 | 21074 ft | 368 kts | 71° |
| 2026-05-07 14:51 | 52.81998 | 5.64498 | 21723 ft | 371 kts | 71° |
| 2026-05-07 14:51 | 52.82859 | 5.68534 | 22345 ft | 374 kts | 71° |
| 2026-05-07 14:52 | 52.83726 | 5.72609 | 22974 ft | 377 kts | 71° |
| 2026-05-07 14:52 | 52.84595 | 5.76714 | 23599 ft | 380 kts | 71° |
| 2026-05-07 14:52 | 52.85468 | 5.80852 | 24100 ft | 384 kts | 71° |
| 2026-05-07 14:52 | 52.86358 | 5.85037 | 24549 ft | 388 kts | 70° |
| 2026-05-07 14:53 | 52.87450 | 5.89166 | 24863 ft | 396 kts | 64° |
| 2026-05-07 14:53 | 52.88684 | 5.93304 | 25114 ft | 406 kts | 64° |
| 2026-05-07 14:53 | 52.89932 | 5.97485 | 25414 ft | 413 kts | 64° |
| 2026-05-07 14:53 | 52.91196 | 6.01763 | 25880 ft | 415 kts | 64° |
| 2026-05-07 14:54 | 52.92457 | 6.06082 | 26387 ft | 416 kts | 64° |
| 2026-05-07 14:54 | 52.93708 | 6.10398 | 26915 ft | 416 kts | 64° |
| 2026-05-07 14:54 | 52.94965 | 6.14722 | 27368 ft | 418 kts | 64° |
| 2026-05-07 14:54 | 52.96236 | 6.19103 | 27625 ft | 425 kts | 64° |
| 2026-05-07 14:55 | 52.97511 | 6.23513 | 28180 ft | 422 kts | 65° |
| 2026-05-07 14:55 | 52.98773 | 6.27893 | 28781 ft | 420 kts | 65° |
| 2026-05-07 14:55 | 53.00030 | 6.32269 | 29218 ft | 421 kts | 65° |
| 2026-05-07 14:55 | 53.01273 | 6.36603 | 29726 ft | 420 kts | 65° |
| 2026-05-07 14:56 | 53.02517 | 6.40961 | 30381 ft | 414 kts | 65° |
| 2026-05-07 14:56 | 53.03755 | 6.45289 | 30721 ft | 416 kts | 65° |
| 2026-05-07 14:56 | 53.04984 | 6.49606 | 31045 ft | 411 kts | 65° |
| 2026-05-07 14:56 | 53.06204 | 6.53882 | 31115 ft | 408 kts | 65° |
| 2026-05-07 14:57 | 53.08622 | 6.62392 | 31097 ft | 407 kts | 65° |
| 2026-05-07 14:57 | 53.11041 | 6.70922 | 31085 ft | 408 kts | 65° |
| 2026-05-07 14:58 | 53.13435 | 6.79407 | 31081 ft | 408 kts | 65° |
| 2026-05-07 14:58 | 53.15836 | 6.87968 | 31083 ft | 408 kts | 65° |
| 2026-05-07 14:59 | 53.18236 | 6.96532 | 31081 ft | 408 kts | 65° |
| 2026-05-07 14:59 | 53.20616 | 7.05104 | 30742 ft | 421 kts | 65° |
| 2026-05-07 15:00 | 53.21871 | 7.09621 | 30481 ft | 437 kts | 65° |
| 2026-05-07 15:00 | 53.23155 | 7.14241 | 30257 ft | 441 kts | 65° |
| 2026-05-07 15:00 | 53.24450 | 7.18897 | 29973 ft | 443 kts | 65° |
| 2026-05-07 15:00 | 53.25737 | 7.23579 | 29689 ft | 444 kts | 65° |
| 2026-05-07 15:01 | 53.27032 | 7.28257 | 29402 ft | 445 kts | 65° |
| 2026-05-07 15:01 | 53.28332 | 7.32954 | 29066 ft | 443 kts | 65° |
| 2026-05-07 15:01 | 53.29616 | 7.37613 | 28471 ft | 439 kts | 65° |
| 2026-05-07 15:01 | 53.30864 | 7.42160 | 27869 ft | 435 kts | 65° |
| 2026-05-07 15:02 | 53.32120 | 7.46751 | 27256 ft | 432 kts | 65° |
| 2026-05-07 15:02 | 53.33365 | 7.51309 | 26630 ft | 430 kts | 65° |
| 2026-05-07 15:02 | 53.34603 | 7.55848 | 26015 ft | 428 kts | 65° |
| 2026-05-07 15:02 | 53.35832 | 7.60366 | 25422 ft | 425 kts | 65° |
| 2026-05-07 15:03 | 53.37052 | 7.64864 | 24852 ft | 422 kts | 65° |
| 2026-05-07 15:03 | 53.38263 | 7.69331 | 24243 ft | 421 kts | 65° |
| 2026-05-07 15:03 | 53.39468 | 7.73795 | 23643 ft | 420 kts | 65° |
| 2026-05-07 15:03 | 53.40653 | 7.78180 | 22969 ft | 418 kts | 65° |
| 2026-05-07 15:04 | 53.41846 | 7.82607 | 22330 ft | 416 kts | 65° |
| 2026-05-07 15:04 | 53.43028 | 7.87030 | 21697 ft | 414 kts | 65° |
| 2026-05-07 15:04 | 53.44206 | 7.91412 | 21088 ft | 412 kts | 65° |
| 2026-05-07 15:04 | 53.45380 | 7.95778 | 20497 ft | 409 kts | 65° |
| 2026-05-07 15:05 | 53.46476 | 8.00158 | 19774 ft | 407 kts | 72° |
| 2026-05-07 15:05 | 53.46921 | 8.04846 | 18973 ft | 408 kts | 89° |
| 2026-05-07 15:05 | 53.46856 | 8.09580 | 18309 ft | 404 kts | 92° |
| 2026-05-07 15:05 | 53.46753 | 8.14207 | 17543 ft | 401 kts | 92° |
| 2026-05-07 15:06 | 53.46654 | 8.18855 | 16940 ft | 395 kts | 92° |
| 2026-05-07 15:06 | 53.46566 | 8.23415 | 16391 ft | 388 kts | 91° |
| 2026-05-07 15:06 | 53.46492 | 8.27895 | 15873 ft | 380 kts | 91° |
| 2026-05-07 15:06 | 53.46418 | 8.32292 | 15384 ft | 374 kts | 91° |
| 2026-05-07 15:07 | 53.46345 | 8.36615 | 14921 ft | 367 kts | 91° |
| 2026-05-07 15:07 | 53.46276 | 8.40861 | 14525 ft | 359 kts | 92° |
| 2026-05-07 15:07 | 53.46201 | 8.44987 | 14235 ft | 348 kts | 92° |
| 2026-05-07 15:07 | 53.46126 | 8.48987 | 13860 ft | 340 kts | 92° |
| 2026-05-07 15:08 | 53.46054 | 8.52884 | 13284 ft | 337 kts | 92° |
| 2026-05-07 15:08 | 53.45984 | 8.56799 | 12629 ft | 336 kts | 92° |
| 2026-05-07 15:08 | 53.45916 | 8.60656 | 12261 ft | 326 kts | 92° |
| 2026-05-07 15:08 | 53.45847 | 8.64388 | 12000 ft | 314 kts | 92° |
| 2026-05-07 15:09 | 53.45774 | 8.67979 | 11783 ft | 301 kts | 92° |
| 2026-05-07 15:09 | 53.45704 | 8.71439 | 11472 ft | 293 kts | 92° |
| 2026-05-07 15:09 | 53.45636 | 8.74840 | 11034 ft | 290 kts | 92° |
| 2026-05-07 15:09 | 53.45566 | 8.78213 | 10635 ft | 289 kts | 92° |
| 2026-05-07 15:10 | 53.45496 | 8.81577 | 10242 ft | 288 kts | 92° |
| 2026-05-07 15:10 | 53.45426 | 8.84881 | 9859 ft | 286 kts | 92° |
| 2026-05-07 15:10 | 53.45355 | 8.88204 | 9457 ft | 284 kts | 92° |
| 2026-05-07 15:10 | 53.45283 | 8.91492 | 9080 ft | 281 kts | 92° |
| 2026-05-07 15:11 | 53.45213 | 8.94756 | 8687 ft | 279 kts | 92° |
| 2026-05-07 15:11 | 53.45142 | 8.97996 | 8317 ft | 277 kts | 92° |
| 2026-05-07 15:11 | 53.45071 | 9.01210 | 7945 ft | 274 kts | 92° |
| 2026-05-07 15:11 | 53.45003 | 9.04396 | 7579 ft | 272 kts | 91° |
| 2026-05-07 15:12 | 53.44940 | 9.07552 | 7280 ft | 268 kts | 91° |
| 2026-05-07 15:12 | 53.44870 | 9.10621 | 7117 ft | 258 kts | 91° |
| 2026-05-07 15:12 | 53.44804 | 9.13578 | 6904 ft | 250 kts | 91° |
| 2026-05-07 15:12 | 53.44748 | 9.16447 | 6613 ft | 248 kts | 91° |
| 2026-05-07 15:13 | 53.44682 | 9.19342 | 6246 ft | 248 kts | 91° |
| 2026-05-07 15:13 | 53.44607 | 9.22232 | 5850 ft | 248 kts | 92° |
| 2026-05-07 15:13 | 53.44283 | 9.25060 | 5444 ft | 249 kts | 112° |
| 2026-05-07 15:13 | 53.43363 | 9.27514 | 5132 ft | 248 kts | 124° |
| 2026-05-07 15:14 | 53.42332 | 9.29778 | 4974 ft | 239 kts | 126° |
| 2026-05-07 15:14 | 53.41341 | 9.31911 | 4954 ft | 225 kts | 126° |
| 2026-05-07 15:14 | 53.40388 | 9.33947 | 4915 ft | 218 kts | 126° |
| 2026-05-07 15:14 | 53.39481 | 9.35945 | 4655 ft | 213 kts | 124° |
| 2026-05-07 15:15 | 53.38622 | 9.37905 | 4488 ft | 205 kts | 122° |
| 2026-05-07 15:15 | 53.38055 | 9.40038 | 4216 ft | 200 kts | 105° |
| 2026-05-07 15:15 | 53.37763 | 9.42278 | 3998 ft | 200 kts | 89° |
| 2026-05-07 15:15 | 53.37962 | 9.44564 | 3973 ft | 199 kts | 75° |
| 2026-05-07 15:16 | 53.38405 | 9.46763 | 3976 ft | 198 kts | 67° |
| 2026-05-07 15:16 | 53.39002 | 9.48856 | 3983 ft | 199 kts | 62° |
| 2026-05-07 15:16 | 53.39702 | 9.50859 | 3983 ft | 199 kts | 58° |
| 2026-05-07 15:16 | 53.40473 | 9.52788 | 3988 ft | 200 kts | 56° |
| 2026-05-07 15:17 | 53.41336 | 9.54603 | 4008 ft | 200 kts | 42° |
| 2026-05-07 15:17 | 53.42584 | 9.55621 | 4053 ft | 205 kts | 12° |
| 2026-05-07 15:17 | 53.44002 | 9.55403 | 4054 ft | 210 kts | 341° |
| 2026-05-07 15:17 | 53.45181 | 9.53947 | 4019 ft | 216 kts | 309° |
| 2026-05-07 15:18 | 53.45766 | 9.51657 | 4007 ft | 221 kts | 278° |
| 2026-05-07 15:18 | 53.45596 | 9.49104 | 4004 ft | 224 kts | 249° |
| 2026-05-07 15:18 | 53.44734 | 9.46992 | 3994 ft | 219 kts | 217° |
| 2026-05-07 15:18 | 53.43383 | 9.45926 | 4000 ft | 215 kts | 185° |
| 2026-05-07 15:19 | 53.41930 | 9.46147 | 4007 ft | 209 kts | 159° |
| 2026-05-07 15:19 | 53.40674 | 9.47290 | 4002 ft | 205 kts | 133° |
| 2026-05-07 15:19 | 53.39938 | 9.49267 | 3996 ft | 202 kts | 103° |
| 2026-05-07 15:19 | 53.39885 | 9.51572 | 3991 ft | 197 kts | 76° |
| 2026-05-07 15:20 | 53.40459 | 9.53614 | 3995 ft | 198 kts | 56° |
| 2026-05-07 15:20 | 53.41374 | 9.55343 | 4004 ft | 199 kts | 47° |
| 2026-05-07 15:20 | 53.42295 | 9.57077 | 3993 ft | 199 kts | 51° |
| 2026-05-07 15:20 | 53.43185 | 9.58841 | 3990 ft | 198 kts | 51° |
| 2026-05-07 15:21 | 53.44068 | 9.60608 | 3988 ft | 197 kts | 51° |
| 2026-05-07 15:21 | 53.44908 | 9.62291 | 4021 ft | 180 kts | 51° |
| 2026-05-07 15:21 | 53.45703 | 9.63887 | 4025 ft | 178 kts | 51° |
| 2026-05-07 15:21 | 53.46488 | 9.65463 | 3998 ft | 170 kts | 51° |
| 2026-05-07 15:22 | 53.47209 | 9.66910 | 3999 ft | 152 kts | 51° |
| 2026-05-07 15:22 | 53.47844 | 9.68187 | 3986 ft | 134 kts | 51° |
| 2026-05-07 15:22 | 53.48428 | 9.69361 | 3990 ft | 130 kts | 51° |
| 2026-05-07 15:22 | 53.48978 | 9.70467 | 3963 ft | 130 kts | 52° |
| 2026-05-07 15:23 | 53.49582 | 9.71682 | 3829 ft | 130 kts | 52° |
| 2026-05-07 15:23 | 53.50163 | 9.72850 | 3676 ft | 130 kts | 51° |
| 2026-05-07 15:23 | 53.50740 | 9.74012 | 3537 ft | 129 kts | 52° |
| 2026-05-07 15:23 | 53.51314 | 9.75167 | 3366 ft | 129 kts | 52° |
| 2026-05-07 15:24 | 53.51890 | 9.76327 | 3185 ft | 129 kts | 52° |
| 2026-05-07 15:24 | 53.52460 | 9.77476 | 3014 ft | 129 kts | 52° |
| 2026-05-07 15:24 | 53.53032 | 9.78628 | 2852 ft | 128 kts | 52° |
| 2026-05-07 15:24 | 53.53600 | 9.79773 | 2685 ft | 127 kts | 52° |
| 2026-05-07 15:25 | 53.54165 | 9.80911 | 2499 ft | 128 kts | 52° |
| 2026-05-07 15:25 | 53.54733 | 9.82055 | 2321 ft | 126 kts | 51° |
| 2026-05-07 15:25 | 53.55285 | 9.83169 | 2140 ft | 126 kts | 52° |
| 2026-05-07 15:25 | 53.55844 | 9.84296 | 1984 ft | 125 kts | 53° |
| 2026-05-07 15:26 | 53.56397 | 9.85410 | 1818 ft | 125 kts | 52° |
| 2026-05-07 15:26 | 53.56950 | 9.86528 | 1646 ft | 123 kts | 53° |
| 2026-05-07 15:26 | 53.57502 | 9.87641 | 1471 ft | 124 kts | 51° |
| 2026-05-07 15:26 | 53.58057 | 9.88752 | 1302 ft | 123 kts | 52° |
| 2026-05-07 15:27 | 53.58606 | 9.89859 | 1174 ft | 124 kts | 52° |
| 2026-05-07 15:27 | 53.59150 | 9.90979 | 944 ft | 122 kts | 51° |
| 2026-05-07 15:27 | 53.59685 | 9.92084 | 793 ft | 121 kts | 51° |
| 2026-05-07 15:27 | 53.60251 | 9.93171 | 628 ft | 124 kts | 49° |
| 2026-05-07 15:28 | 53.60801 | 9.94269 | 415 ft | 125 kts | 51° |
| 2026-05-07 15:28 | 53.61351 | 9.95405 | 291 ft | 124 kts | 52° |
| 2026-05-07 15:28 | 53.61899 | 9.96520 | 121 ft | 124 kts | 52° |
| 2026-05-07 15:28 | 53.62443 | 9.97620 | 45 ft | 116 kts | 51° |
| 2026-05-07 15:29 | 53.62854 | 9.98454 | 49 ft | 68 kts | 50° |
| 2026-05-07 15:29 | 53.63045 | 9.98849 | 51 ft | 19 kts | 51° |
| 2026-05-07 15:29 | 53.63074 | 9.98931 | 49 ft | 15 kts | 67° |
| 2026-05-07 15:29 | 53.63092 | 9.99123 | 52 ft | 18 kts | 92° |
| 2026-05-07 15:30 | 53.63084 | 9.99309 | 52 ft | 7 kts | 95° |
| 2026-05-07 15:30 | 53.63083 | 9.99338 | 52 ft | 0 kts | 84° |
| 2026-05-07 15:30 | 53.63084 | 9.99343 | 52 ft | 2 kts | 83° |
| 2026-05-07 15:30 | 53.63096 | 9.99394 | 52 ft | 9 kts | 60° |
| 2026-05-07 15:31 | 53.63147 | 9.99516 | 52 ft | 14 kts | 51° |
| 2026-05-07 15:31 | 53.63214 | 9.99654 | 54 ft | 14 kts | 51° |
| 2026-05-07 15:31 | 53.63200 | 9.99807 | 52 ft | 16 kts | 136° |
| 2026-05-07 15:31 | 53.63124 | 9.99905 | 54 ft | 13 kts | 91° |
| 2026-05-07 15:32 | 53.63178 | 10.00040 | 54 ft | 15 kts | 52° |
| 2026-05-07 15:32 | 53.63247 | 10.00180 | 54 ft | 12 kts | 49° |
| 2026-05-07 15:32 | 53.63286 | 10.00249 | 54 ft | 7 kts | 65° |
| 2026-05-07 15:32 | 53.63291 | 10.00330 | 54 ft | 4 kts | 87° |
| 2026-05-07 15:33 | 53.63291 | 10.00348 | 54 ft | 3 kts | 86° |
| 2026-05-07 15:33 | 53.63292 | 10.00354 | 54 ft | 0 kts | 86° |